createdAt,value
2023-02-03T00:02:37.387Z,101033.70
2023-02-03T00:05:31.620Z,101036.10
2023-02-03T00:09:18.371Z,101032.27
2023-02-03T00:12:11.380Z,101028.79
2023-02-03T00:15:23.411Z,101026.19
2023-02-03T00:18:56.875Z,101031.82
2023-02-03T00:22:21.190Z,101036.95
2023-02-03T00:25:01.634Z,101035.70
2023-02-03T00:28:40.891Z,101037.72
2023-02-03T00:31:54.623Z,101037.31
2023-02-03T00:35:30.893Z,101035.45
2023-02-03T00:38:52.619Z,101031.04
2023-02-03T00:41:53.827Z,101041.84
2023-02-03T00:45:03.867Z,101042.80
2023-02-03T00:48:54.774Z,101048.59
2023-02-03T00:52:42.632Z,101061.44
2023-02-03T00:56:00.197Z,101062.54
2023-02-03T00:59:55.428Z,101060.49
2023-02-03T01:03:50.796Z,101060.39
2023-02-03T01:07:05.496Z,101060.36
2023-02-03T01:10:31.431Z,101056.02
2023-02-03T01:14:02.151Z,101059.81
2023-02-03T01:17:03.488Z,101061.52
2023-02-03T01:21:02.481Z,101066.67
2023-02-03T01:24:34.290Z,101061.67
2023-02-03T01:27:48.538Z,101064.11
2023-02-03T01:31:28.771Z,101062.09
2023-02-03T01:35:17.326Z,101063.52
2023-02-03T01:39:24.397Z,101071.30
2023-02-03T01:43:04.679Z,101071.15
2023-02-03T01:47:04.575Z,101066.86
2023-02-03T01:50:54.360Z,101058.20
2023-02-03T01:53:47.710Z,101053.03
2023-02-03T01:57:11.992Z,101052.64
2023-02-03T02:01:12.615Z,101046.73
2023-02-03T02:04:43.073Z,101048.59
2023-02-03T02:07:52.993Z,101051.66
2023-02-03T02:11:43.922Z,101049.05
2023-02-03T02:14:50.662Z,101046.27
2023-02-03T02:18:42.554Z,101040.06
2023-02-03T02:22:05.027Z,101032.45
2023-02-03T02:26:15.316Z,101031.40
2023-02-03T02:29:55.401Z,101028.61
2023-02-03T02:34:39.421Z,101027.19
2023-02-03T02:38:38.971Z,101029.58
2023-02-03T02:42:25.546Z,101014.86
2023-02-03T02:46:40.618Z,101006.17
2023-02-03T02:50:35.184Z,101009.04
2023-02-03T02:55:03.412Z,101014.29
2023-02-03T02:58:52.121Z,101012.48
2023-02-03T03:02:13.667Z,101011.55
2023-02-03T03:06:08.694Z,101013.91
2023-02-03T03:10:15.356Z,101016.95
2023-02-03T03:13:44.479Z,101018.91
2023-02-03T03:17:05.053Z,101015.91
2023-02-03T03:21:15.986Z,101013.52
2023-02-03T03:25:00.154Z,101018.22
2023-02-03T03:28:37.810Z,101018.13
2023-02-03T03:32:20.410Z,101013.21
2023-02-03T03:35:46.163Z,101007.77
2023-02-03T03:39:06.111Z,101003.08
2023-02-03T03:42:25.546Z,100995.42
2023-02-03T03:45:55.938Z,100992.41
2023-02-03T03:49:35.259Z,100991.80
2023-02-03T03:52:25.068Z,100989.98
2023-02-03T03:55:35.228Z,100991.46
2023-02-03T03:59:06.929Z,101000.15
2023-02-03T04:02:49.321Z,100996.96
2023-02-03T04:06:47.019Z,100999.30
2023-02-03T04:10:16.480Z,101004.57
2023-02-03T04:13:50.127Z,101002.10
2023-02-03T04:18:13.354Z,101004.45
2023-02-03T04:21:04.035Z,101005.73
2023-02-03T04:24:13.877Z,101002.90
2023-02-03T04:27:41.172Z,101002.44
2023-02-03T04:31:00.731Z,101008.05
2023-02-03T04:33:46.857Z,101007.64
2023-02-03T04:36:40.016Z,101007.87
2023-02-03T04:39:51.357Z,101007.47
2023-02-03T04:42:42.284Z,101005.88
2023-02-03T04:45:27.710Z,101004.24
2023-02-03T04:48:04.556Z,101002.48
2023-02-03T04:51:56.174Z,100998.41
2023-02-03T04:54:55.250Z,101001.63
2023-02-03T04:58:18.886Z,100999.30
2023-02-03T05:00:56.072Z,100995.27
2023-02-03T05:04:31.387Z,100988.15
2023-02-03T05:07:32.422Z,100986.55
2023-02-03T05:11:02.081Z,100985.59
2023-02-03T05:13:44.935Z,100982.25
2023-02-03T05:17:32.938Z,100977.16
2023-02-03T05:21:12.066Z,100973.81
2023-02-03T05:24:14.311Z,100970.13
2023-02-03T05:27:28.258Z,100967.14
2023-02-03T05:30:26.731Z,100963.46
2023-02-03T05:33:08.633Z,100959.65
2023-02-03T05:37:30.397Z,100959.28
2023-02-03T05:40:59.586Z,100953.22
2023-02-03T05:44:34.821Z,100950.98
2023-02-03T05:48:19.887Z,100949.73
2023-02-03T05:52:31.270Z,100947.29
2023-02-03T05:55:44.087Z,100949.69
2023-02-03T05:59:42.787Z,100950.18
2023-02-03T06:03:43.242Z,100949.65
2023-02-03T06:07:03.385Z,100952.19
2023-02-03T06:10:25.793Z,100951.82
2023-02-03T06:13:44.078Z,100948.50
2023-02-03T06:17:09.850Z,100946.77
2023-02-03T06:20:04.069Z,100938.34
2023-02-03T06:23:21.772Z,100931.63
2023-02-03T06:26:58.396Z,100926.63
2023-02-03T06:30:30.311Z,100923.21
2023-02-03T06:33:58.834Z,100920.98
2023-02-03T06:36:58.084Z,100914.60
2023-02-03T06:40:13.081Z,100903.92
2023-02-03T06:43:26.419Z,100899.66
2023-02-03T06:46:29.711Z,100898.08
2023-02-03T06:49:59.637Z,100897.22
2023-02-03T06:53:29.644Z,100890.88
2023-02-03T06:57:18.461Z,100886.45
2023-02-03T07:00:54.804Z,100881.52
2023-02-03T07:03:59.331Z,100870.20
2023-02-03T07:07:20.387Z,100865.08
2023-02-03T07:10:52.672Z,100857.77
2023-02-03T07:13:24.125Z,100851.63
2023-02-03T07:17:03.377Z,100846.88
2023-02-03T07:20:33.154Z,100832.85
2023-02-03T07:23:59.875Z,100829.98
2023-02-03T07:27:09.752Z,100829.55
2023-02-03T07:30:47.856Z,100825.17
2023-02-03T07:34:47.740Z,100822.19
2023-02-03T07:38:08.226Z,100817.99
2023-02-03T07:41:57.160Z,100810.84
2023-02-03T07:45:59.051Z,100806.83
2023-02-03T07:49:37.499Z,100803.31
2023-02-03T07:53:28.900Z,100793.58
2023-02-03T07:57:57.618Z,100783.91
2023-02-03T08:02:02.103Z,100779.06
2023-02-03T08:05:01.049Z,100768.46
2023-02-03T08:07:46.447Z,100774.59
2023-02-03T08:10:18.539Z,100773.62
2023-02-03T08:13:32.156Z,100768.56
2023-02-03T08:16:18.093Z,100762.98
2023-02-03T08:19:59.714Z,100758.61
2023-02-03T08:23:08.941Z,100748.73
2023-02-03T08:25:50.930Z,100742.98
2023-02-03T08:28:19.660Z,100737.60
2023-02-03T08:31:12.591Z,100736.85
2023-02-03T08:33:50.408Z,100732.66
2023-02-03T08:36:48.847Z,100726.39
2023-02-03T08:40:49.560Z,100721.21
2023-02-03T08:44:19.757Z,100712.36
2023-02-03T08:47:38.147Z,100706.28
2023-02-03T08:51:22.639Z,100696.56
2023-02-03T08:55:12.194Z,100692.91
2023-02-03T08:58:58.560Z,100689.23
2023-02-03T09:02:37.274Z,100676.58
2023-02-03T09:06:00.043Z,100669.11
2023-02-03T09:08:50.943Z,100662.15
2023-02-03T09:11:51.852Z,100654.47
2023-02-03T09:14:25.310Z,100649.20
2023-02-03T09:17:31.068Z,100648.42
2023-02-03T09:20:21.750Z,100643.36
2023-02-03T09:22:59.617Z,100639.47
2023-02-03T09:25:36.566Z,100633.34
2023-02-03T09:28:33.721Z,100625.48
2023-02-03T09:31:24.586Z,100620.91
2023-02-03T09:34:16.186Z,100612.90
2023-02-03T09:37:41.074Z,100604.20
2023-02-03T09:41:21.278Z,100588.09
2023-02-03T09:45:06.263Z,100584.41
2023-02-03T09:48:07.423Z,100571.73
2023-02-03T09:50:50.747Z,100564.59
2023-02-03T09:54:13.762Z,100552.77
2023-02-03T09:57:14.637Z,100547.83
2023-02-03T10:01:11.505Z,100541.89
2023-02-03T10:04:43.667Z,100535.23
2023-02-03T10:08:18.704Z,100515.98
2023-02-03T10:11:51.404Z,100509.69
2023-02-03T10:15:21.095Z,100502.35
2023-02-03T10:19:17.221Z,100495.19
2023-02-03T10:22:56.711Z,100482.13
2023-02-03T10:27:05.631Z,100478.73
2023-02-03T10:30:34.675Z,100462.17
2023-02-03T10:34:11.112Z,100452.00
2023-02-03T10:38:41.956Z,100433.89
2023-02-03T10:41:36.482Z,100430.98
2023-02-03T10:45:47.099Z,100421.33
2023-02-03T10:49:56.056Z,100410.65
2023-02-03T10:53:55.899Z,100390.83
2023-02-03T10:57:49.923Z,100380.15
2023-02-03T11:01:45.053Z,100364.98
2023-02-03T11:05:17.883Z,100351.20
2023-02-03T11:08:36.258Z,100341.03
2023-02-03T11:12:14.944Z,100324.08
2023-02-03T11:16:03.951Z,100310.80
2023-02-03T11:20:21.776Z,100284.02
2023-02-03T11:24:42.655Z,100267.96
2023-02-03T11:28:29.122Z,100255.69
2023-02-03T11:32:10.184Z,100243.60
2023-02-03T11:35:56.065Z,100232.90
2023-02-03T11:40:03.324Z,100216.47
2023-02-03T11:44:03.669Z,100203.67
2023-02-03T11:48:04.875Z,100188.98
2023-02-03T11:52:36.919Z,100193.45
2023-02-03T11:56:28.362Z,100187.92
2023-02-03T12:00:36.997Z,100181.19
2023-02-03T12:04:43.028Z,100169.63
2023-02-03T12:09:05.048Z,100161.16
2023-02-03T12:13:04.431Z,100147.53
2023-02-03T12:17:43.265Z,100142.70
2023-02-03T12:21:50.456Z,100128.17
2023-02-03T12:25:37.863Z,100118.52
2023-02-03T12:30:07.623Z,100112.63
2023-02-03T12:34:45.333Z,100101.23
2023-02-03T12:38:08.709Z,100092.23
2023-02-03T12:42:01.286Z,100085.15
2023-02-03T12:46:10.220Z,100078.41
2023-02-03T12:50:01.993Z,100056.63
2023-02-03T12:54:06.081Z,100045.90
2023-02-03T12:58:00.783Z,100026.90
2023-02-03T13:01:55.591Z,100010.11
2023-02-03T13:05:47.303Z,99995.23
2023-02-03T13:10:00.228Z,99984.01
2023-02-03T13:13:38.945Z,99976.56
2023-02-03T13:17:02.807Z,99959.27
2023-02-03T13:20:53.243Z,99951.30
2023-02-03T13:24:28.713Z,99936.77
2023-02-03T13:28:34.739Z,99926.21
2023-02-03T13:32:47.706Z,99904.25
2023-02-03T13:37:08.546Z,99893.17
2023-02-03T13:40:53.000Z,99877.96
2023-02-03T13:44:54.462Z,99870.02
2023-02-03T13:48:41.183Z,99857.04
2023-02-03T13:52:21.096Z,99852.02
2023-02-03T13:56:04.242Z,99846.48
2023-02-03T14:00:08.192Z,99841.64
2023-02-03T14:03:33.498Z,99833.53
2023-02-03T14:07:42.431Z,99825.40
2023-02-03T14:11:29.748Z,99816.23
2023-02-03T14:15:25.685Z,99805.00
2023-02-03T14:19:03.616Z,99793.06
2023-02-03T14:22:43.626Z,99785.11
2023-02-03T14:26:23.325Z,99783.38
2023-02-03T14:30:12.380Z,99776.80
2023-02-03T14:34:17.969Z,99768.86
2023-02-03T14:38:10.800Z,99759.72
2023-02-03T14:41:58.402Z,99756.60
2023-02-03T14:45:39.548Z,99749.88
2023-02-03T14:49:45.430Z,99746.23
2023-02-03T14:54:00.978Z,99740.53
2023-02-03T14:57:42.485Z,99736.55
2023-02-03T15:01:42.819Z,99727.91
2023-02-03T15:05:31.973Z,99721.00
2023-02-03T15:09:43.725Z,99714.10
2023-02-03T15:13:43.930Z,99707.52
2023-02-03T15:17:22.859Z,99703.04
2023-02-03T15:21:13.308Z,99699.41
2023-02-03T15:24:54.550Z,99690.27
2023-02-03T15:29:12.257Z,99687.67
2023-02-03T15:33:10.844Z,99680.23
2023-02-03T15:37:22.555Z,99674.52
2023-02-03T15:41:19.559Z,99670.39
2023-02-03T15:45:22.136Z,99667.11
2023-02-03T15:49:19.981Z,99665.89
2023-02-03T15:53:51.404Z,99652.25
2023-02-03T15:57:49.393Z,99641.20
2023-02-03T16:02:01.782Z,99639.13
2023-02-03T16:06:29.072Z,99635.67
2023-02-03T16:10:21.075Z,99631.71
2023-02-03T16:14:29.956Z,99636.89
2023-02-03T16:18:48.628Z,99627.73
2023-02-03T16:23:05.510Z,99617.05
2023-02-03T16:27:14.415Z,99616.70
2023-02-03T16:31:10.014Z,99606.36
2023-02-03T16:34:57.703Z,99604.63
2023-02-03T16:38:44.545Z,99598.76
2023-02-03T16:42:14.850Z,99592.56
2023-02-03T16:45:54.559Z,99582.91
2023-02-03T16:49:24.554Z,99581.70
2023-02-03T16:53:53.509Z,99578.07
2023-02-03T16:58:03.185Z,99579.95
2023-02-03T17:01:52.529Z,99579.61
2023-02-03T17:05:51.682Z,99571.69
2023-02-03T17:09:43.381Z,99576.33
2023-02-03T17:14:02.067Z,99580.47
2023-02-03T17:17:50.647Z,99572.38
2023-02-03T17:21:59.509Z,99580.13
2023-02-03T17:25:48.416Z,99584.98
2023-02-03T17:29:47.436Z,99587.21
2023-02-03T17:33:46.150Z,99590.67
2023-02-03T17:37:47.562Z,99594.45
2023-02-03T17:53:46.210Z,99610.84
2023-02-03T17:57:38.484Z,99602.39
2023-02-03T18:01:26.423Z,99605.16
2023-02-03T18:05:17.497Z,99604.81
2023-02-03T18:09:11.762Z,99602.91
2023-02-03T18:13:30.453Z,99614.30
2023-02-03T18:17:03.136Z,99624.30
2023-02-03T18:21:31.985Z,99631.38
2023-02-03T18:24:50.564Z,99638.27
2023-02-03T18:28:49.020Z,99636.72
2023-02-03T18:33:18.459Z,99643.10
2023-02-03T18:37:05.654Z,99644.65
2023-02-03T18:41:04.506Z,99654.66
2023-02-03T18:44:46.310Z,99664.84
2023-02-03T18:48:56.386Z,99666.73
2023-02-03T18:53:05.834Z,99665.54
2023-02-03T18:56:46.256Z,99663.81
2023-02-03T19:01:16.450Z,99670.20
2023-02-03T19:04:28.056Z,99672.77
2023-02-03T19:08:11.549Z,99672.41
2023-02-03T19:12:00.270Z,99675.86
2023-02-03T19:15:49.311Z,99681.89
2023-02-03T19:19:26.784Z,99678.27
2023-02-03T19:23:06.461Z,99674.14
2023-02-03T19:26:57.814Z,99669.15
2023-02-03T19:30:24.133Z,99674.15
2023-02-03T19:34:38.279Z,99680.02
2023-02-03T19:38:47.048Z,99674.84
2023-02-03T19:42:52.957Z,99670.17
2023-02-03T19:46:10.566Z,99680.86
2023-02-03T19:49:17.392Z,99692.06
2023-02-03T19:53:09.946Z,99698.27
2023-02-03T19:56:58.904Z,99695.69
2023-02-03T20:01:26.320Z,99690.52
2023-02-03T20:05:55.232Z,99701.91
2023-02-03T20:09:44.212Z,99712.60
2023-02-03T20:14:05.963Z,99713.80
2023-02-03T20:18:19.151Z,99709.15
2023-02-03T20:20:55.132Z,99709.31
2023-02-03T20:24:34.452Z,99721.90
2023-02-03T20:27:45.482Z,99740.17
2023-02-03T20:31:54.808Z,99743.80
2023-02-03T20:36:05.731Z,99745.87
2023-02-03T20:40:14.834Z,99751.56
2023-02-03T20:44:18.142Z,99752.59
2023-02-03T20:48:08.953Z,99754.15
2023-02-03T20:51:31.016Z,99751.55
2023-02-03T20:55:34.662Z,99746.90
2023-02-03T20:59:44.250Z,99747.07
2023-02-03T21:04:11.694Z,99752.41
2023-02-03T21:08:32.339Z,99762.21
2023-02-03T21:11:39.752Z,99772.71
2023-02-03T21:15:39.661Z,99790.82
2023-02-03T21:19:38.109Z,99795.13
2023-02-03T21:23:34.888Z,99794.77
2023-02-03T21:26:47.772Z,99794.58
2023-02-03T21:31:04.919Z,99808.36
2023-02-03T21:35:25.625Z,99817.34
2023-02-03T21:39:35.201Z,99817.52
2023-02-03T21:43:17.505Z,99820.79
2023-02-03T21:47:07.791Z,99832.67
2023-02-03T21:50:56.101Z,99841.98
2023-02-03T21:54:43.210Z,99843.55
2023-02-03T21:58:39.574Z,99847.66
2023-02-03T22:02:37.528Z,99858.52
2023-02-03T22:05:58.421Z,99863.48
2023-02-03T22:09:53.567Z,99862.96
2023-02-03T22:14:05.050Z,99865.52
2023-02-03T22:17:26.119Z,99879.83
2023-02-03T22:21:55.266Z,99895.48
2023-02-03T22:26:24.070Z,99905.46
2023-02-03T22:29:57.294Z,99900.96
2023-02-03T22:33:46.449Z,99902.67
2023-02-03T22:38:08.340Z,99908.02
2023-02-03T22:42:18.178Z,99908.81
2023-02-03T22:46:27.677Z,99912.06
2023-02-03T22:49:48.087Z,99913.96
2023-02-03T22:53:39.671Z,99916.19
2023-02-03T22:57:28.554Z,99910.79
2023-02-03T23:01:31.912Z,99935.42
2023-02-03T23:05:29.949Z,99939.37
2023-02-03T23:08:58.567Z,99939.17
2023-02-03T23:12:47.551Z,99947.62
2023-02-03T23:16:49.831Z,99960.02
2023-02-03T23:20:23.064Z,99973.62
2023-02-03T23:24:32.091Z,99987.23
2023-02-03T23:28:21.340Z,100001.17
2023-02-03T23:32:22.276Z,100016.46
2023-02-03T23:36:00.703Z,100027.13
2023-02-03T23:40:09.616Z,100034.56
2023-02-03T23:44:18.835Z,100041.41
2023-02-03T23:48:11.262Z,100042.59
2023-02-03T23:52:15.841Z,100052.20
2023-02-03T23:56:07.593Z,100058.18
